Latest Weather Observations for Green Cape

IDN60801

Issued at 6:02 pm EST Saturday 20 July 2019 (issued every 10 minutes, with the page automatically refreshed every 10 minutes)

About weather observations | Map of weather stations | Latest weather observations for NSW | Other Formats
Station Details ID: 069137 Name: GREEN CAPE AWS Lat: -37.26 Lon: 150.05 Height: 19.4 m
Data from the previous 72 hours. | See also: Recent months at Green Cape
Date/Time
EST
Temp
°C
App
Temp
°C
Dew
Point
°C
Rel
Hum
%
Delta-T
°C
Wind Press
QNH
hPa
Press
MSL
hPa
Rain since
9am
mm
Dir  Spd
km/h
Gust
km/h
Spd
kts
Gust
kts
20/06:00pm 11.5 9.9 7.8 78 1.8 SSW 6 7 3 4 1017.2 1017.2 0.0
20/05:30pm 11.8 10.0 7.9 77 1.9 S 7 9 4 5 1017.4 1017.4 0.0
20/05:00pm 12.3 9.7 7.8 74 2.2 S 11 13 6 7 1017.7 1017.7 0.0
20/04:30pm 13.2 10.4 8.7 74 2.3 SSE 13 15 7 8 1017.8 1017.8 0.0
20/04:00pm 13.9 11.3 9.3 74 2.3 SSE 13 15 7 8 1018.0 1018.0 0.0
20/03:30pm 14.5 11.7 10.1 75 2.3 SSE 15 17 8 9 1018.2 1018.2 0.0
20/03:00pm 15.2 12.6 10.8 75 2.3 SSE 15 17 8 9 1018.3 1018.3 0.0
20/02:30pm 16.0 13.6 11.4 74 2.5 SSE 15 17 8 9 1018.4 1018.4 0.0
20/02:00pm 16.8 15.6 11.7 72 2.8 SSE 9 15 5 8 1018.5 1018.5 0.0
20/01:30pm 16.4 15.6 11.1 71 2.8 SSE 6 7 3 4 1018.7 1018.7 0.0
20/01:00pm 16.3 16.0 11.5 73 2.6 S 4 6 2 3 1019.0 1019.0 0.0
20/12:30pm 14.3 14.3 9.9 75 2.3 CALM 0 0 0 0 1019.3 1019.3 0.0
20/12:00pm 13.4 12.5 9.1 75 2.2 WSW 4 4 2 2 1019.8 1019.8 0.0
20/11:30am 12.6 10.9 8.5 76 2.0 WSW 7 7 4 4 1020.5 1020.5 0.0
20/11:00am 11.9 9.8 8.2 78 1.8 W 9 11 5 6 1020.8 1020.8 0.0
20/10:30am 10.9 8.4 8.0 82 1.4 W 11 13 6 7 1021.1 1021.1 0.0
20/10:00am 10.1 7.1 7.9 86 1.1 W 13 15 7 8 1021.4 1021.4 0.0
20/09:30am 9.5 7.6 7.6 88 0.9 WNW 7 9 4 5 1021.4 1021.4 0.0
20/09:00am 8.6 5.5 7.1 90 0.7 W 13 15 7 8 1021.6 1021.6 0.0
20/08:30am 8.3 5.5 7.1 92 0.6 W 11 13 6 7 1021.6 1021.6 0.0
20/08:00am 7.9 5.1 6.8 93 0.5 W 11 13 6 7 1021.5 1021.5 0.0
20/07:30am 7.7 3.7 6.6 93 0.5 W 17 19 9 10 1021.5 1021.5 0.0
20/07:00am 7.5 3.8 6.4 93 0.5 W 15 19 8 10 1021.4 1021.4 0.0
20/06:30am 7.6 3.6 6.5 93 0.5 W 17 19 9 10 1021.4 1021.4 0.0
20/06:00am 7.8 4.2 6.7 93 0.5 W 15 19 8 10 1021.2 1021.2 0.0
20/05:30am 7.8 4.5 6.6 92 0.6 WNW 13 15 7 8 1021.3 1021.3 0.0
20/05:00am 8.5 5.4 7.1 91 0.7 W 13 15 7 8 1021.3 1021.3 0.0
20/04:30am 8.6 5.1 7.1 90 0.7 W 15 20 8 11 1021.4 1021.4 0.0
20/04:00am 9.3 6.3 7.7 90 0.8 W 13 17 7 9 1021.3 1021.3 0.0
20/03:30am 9.2 5.8 7.5 89 0.8 W 15 17 8 9 1021.5 1021.5 0.0
20/03:00am 9.2 5.3 7.3 88 0.9 W 17 20 9 11 1021.9 1021.9 0.0
20/02:30am 9.4 5.5 7.2 86 1.0 W 17 22 9 12 1022.1 1022.1 0.0
20/02:00am 9.9 5.6 7.2 83 1.3 W 19 20 10 11 1022.1 1022.1 0.0
20/01:30am 9.4 5.5 7.2 86 1.0 W 17 19 9 10 1022.0 1022.0 0.0
20/01:00am 9.4 5.0 7.2 86 1.0 W 20 22 11 12 1022.0 1022.0 0.0
20/12:30am 10.0 6.1 7.3 83 1.3 W 17 20 9 11 1021.8 1021.8 0.0
20/12:00am 10.5 7.0 7.4 81 1.5 W 15 17 8 9 1021.8 1021.8 0.0
 
Date/Time
EST
Temp
°C
App
Temp
°C
Dew
Point
°C
Rel
Hum
%
Delta-T
°C
Wind Press
QNH
hPa
Press
MSL
hPa
Rain since
9am
mm
Dir  Spd
km/h
Gust
km/h
Spd
kts
Gust
kts
19/11:30pm 10.2 6.3 7.1 81 1.5 W 17 19 9 10 1022.0 1022.0 0.0
19/11:00pm 10.1 5.8 7.0 81 1.5 W 19 22 10 12 1022.1 1022.1 0.0
19/10:30pm 10.4 6.5 7.1 80 1.6 W 17 20 9 11 1022.2 1022.2 0.0
19/10:00pm 10.5 6.2 7.2 80 1.6 W 19 20 10 11 1022.1 1022.1 0.0
19/09:30pm 10.5 6.2 7.2 80 1.6 W 19 20 10 11 1022.1 1022.1 0.0
19/09:00pm 10.8 6.4 7.3 79 1.7 W 20 22 11 12 1021.9 1021.9 0.0
19/08:30pm 11.1 6.7 7.4 78 1.8 W 20 22 11 12 1021.7 1021.7 0.0
19/08:00pm 11.0 7.1 7.1 77 1.9 W 17 19 9 10 1021.3 1021.3 0.0
19/07:30pm 12.1 7.8 6.8 70 2.5 SW 19 20 10 11 1021.2 1021.2 0.0
19/07:00pm 11.9 7.6 6.8 71 2.4 SW 19 22 10 12 1020.9 1020.9 0.0
19/06:30pm 11.9 7.0 7.0 72 2.3 SW 22 24 12 13 1020.5 1020.5 0.0
19/06:00pm 12.3 7.1 7.2 71 2.5 SW 24 28 13 15 1019.9 1019.9 0.0
19/05:30pm 12.5 6.5 7.2 70 2.6 SW 28 32 15 17 1019.4 1019.4 0.0
19/05:00pm 12.6 7.6 7.9 73 2.3 SSW 24 30 13 16 1019.2 1019.2 0.0
19/04:30pm 13.1 7.3 7.8 70 2.6 SSW 28 33 15 18 1018.8 1018.8 0.0
19/04:00pm 13.3 7.2 8.2 71 2.5 SSW 30 35 16 19 1018.7 1018.7 0.0
19/03:30pm 13.4 6.7 8.3 71 2.5 SSW 33 39 18 21 1018.4 1018.4 0.0
19/03:00pm 13.7 7.2 8.3 70 2.7 SSW 32 37 17 20 1018.2 1018.2 0.0
19/02:30pm 14.1 8.1 8.5 69 2.8 SSW 30 35 16 19 1018.0 1018.0 0.0
19/02:00pm 14.8 8.5 7.6 62 3.6 WSW 30 35 16 19 1017.8 1017.8 0.0
19/01:30pm 14.3 9.0 8.3 67 3.0 SW 26 30 14 16 1017.8 1017.8 0.0
19/01:00pm 14.2 7.6 7.7 65 3.2 SW 32 43 17 23 1018.1 1018.1 0.0
19/12:30pm 14.2 7.0 7.7 65 3.2 WSW 35 43 19 23 1017.9 1017.9 0.0
19/12:00pm 14.1 6.4 7.2 63 3.4 SW 37 44 20 24 1018.2 1018.2 0.0
19/11:30am 14.0 6.8 7.5 65 3.2 SW 35 46 19 25 1018.4 1018.4 0.0
19/11:00am 13.6 5.6 7.4 66 3.0 SW 39 48 21 26 1018.6 1018.6 0.0
19/10:30am 13.4 5.7 7.0 65 3.1 SW 37 50 20 27 1018.3 1018.3 0.0
19/10:00am 13.3 4.1 6.4 63 3.3 SW 44 61 24 33 1018.0 1018.0 0.0
19/09:38am 13.4 4.8 6.3 62 3.4 SW 41 61 22 33 1017.7 1017.7 0.0
19/09:30am 13.3 6.2 6.6 64 3.2 SW 33 43 18 23 1017.8 1017.8 0.0
19/09:00am 13.4 6.6 6.7 64 3.2 SW 32 46 17 25 1017.6 1017.6 0.0
19/08:30am 13.2 6.3 6.3 63 3.3 SW 32 41 17 22 1017.2 1017.2 0.0
19/08:00am 12.9 7.5 6.5 65 3.1 SW 24 35 13 19 1016.9 1016.9 0.0
19/07:30am 12.7 8.0 5.1 60 3.5 WSW 19 28 10 15 1016.6 1016.6 0.0
19/07:00am 11.3 8.1 2.9 56 3.6 WNW 9 11 5 6 1016.3 1016.3 0.0
19/06:30am 11.7 8.4 2.7 54 3.9 NW 9 15 5 8 1015.9 1015.9 0.0
19/06:00am 11.6 7.1 2.1 52 4.1 NNW 15 19 8 10 1015.3 1015.3 0.0
19/05:30am 11.7 7.1 1.6 50 4.3 NNW 15 19 8 10 1015.0 1015.0 0.0
19/05:00am 10.9 5.5 1.2 51 4.0 NNW 19 24 10 13 1014.7 1014.7 0.0
19/04:30am 10.9 6.3 1.7 53 3.9 NNW 15 19 8 10 1014.2 1014.2 0.0
19/04:00am 11.3 8.5 1.8 52 4.0 NNW 6 9 3 5 1014.4 1014.4 0.0
19/03:30am 11.6 8.6 0.7 47 4.5 NW 6 9 3 5 1014.5 1014.5 0.0
19/03:00am 11.2 6.5 1.2 50 4.2 WNW 15 19 8 10 1014.6 1014.6 0.0
19/02:30am 11.3 6.8 2.1 53 3.9 WNW 15 19 8 10 1014.4 1014.4 0.0
19/02:00am 11.2 7.9 2.2 54 3.8 WNW 9 15 5 8 1014.6 1014.6 0.0
19/01:30am 10.7 6.5 1.5 53 3.9 NW 13 19 7 10 1014.5 1014.5 0.0
19/01:00am 11.1 6.9 3.6 60 3.3 NNW 15 20 8 11 1014.5 1014.5 0.0
19/12:30am 10.6 8.1 6.4 75 2.0 W 9 15 5 8 1014.6 1014.6 0.0
19/12:00am 10.8 7.5 6.4 74 2.1 N 13 20 7 11 1014.5 1014.5 0.0
 
Date/Time
EST
Temp
°C
App
Temp
°C
Dew
Point
°C
Rel
Hum
%
Delta-T
°C
Wind Press
QNH
hPa
Press
MSL
hPa
Rain since
9am
mm
Dir  Spd
km/h
Gust
km/h
Spd
kts
Gust
kts
18/11:30pm 10.9 6.7 5.7 70 2.4 N 17 22 9 12 1014.7 1014.7 0.0
18/11:00pm 10.2 7.4 5.0 70 2.3 NNW 9 15 5 8 1014.8 1014.8 0.0
18/10:30pm 10.9 8.0 4.6 65 2.8 NW 9 13 5 7 1015.0 1015.0 0.0
18/10:00pm 10.9 7.7 5.2 68 2.6 NNW 11 13 6 7 1015.2 1015.2 0.0
18/09:30pm 10.6 6.8 5.6 71 2.3 NNW 15 17 8 9 1015.4 1015.4 0.0
18/09:00pm 10.1 7.5 6.1 76 1.9 WNW 9 11 5 6 1015.0 1015.0 0.0
18/08:30pm 11.6 9.2 7.1 74 2.2 W 9 11 5 6 1015.2 1015.2 0.0
18/08:00pm 11.8 9.2 6.3 69 2.6 WSW 9 13 5 7 1015.2 1015.2 0.0
18/07:30pm 11.8 9.3 6.5 70 2.5 SW 9 13 5 7 1015.3 1015.3 0.0
18/07:00pm 12.0 7.7 7.1 72 2.4 SSW 19 24 10 13 1015.0 1015.0 0.0
18/06:30pm 12.1 7.6 7.0 71 2.4 S 20 22 11 12 1014.9 1014.9 0.0
18/06:00pm 12.1 8.9 6.8 70 2.5 S 13 19 7 10 1014.9 1014.9 0.0
18/05:30pm 12.2 8.2 6.7 69 2.6 SSW 17 22 9 12 1014.7 1014.7 0.0
18/05:00pm 12.6 8.0 6.4 66 2.9 SSW 20 26 11 14 1014.5 1014.5 0.0
18/04:30pm 12.8 8.2 6.4 65 3.0 SSW 20 24 11 13 1014.4 1014.4 0.0
18/04:00pm 13.3 7.8 5.7 60 3.6 WSW 24 35 13 19 1014.2 1014.2 0.0
18/03:30pm 13.3 6.3 5.9 61 3.5 SW 32 37 17 20 1014.0 1014.0 0.0
18/03:00pm 13.9 5.6 6.0 59 3.8 SW 39 46 21 25 1013.5 1013.5 0.0
18/02:30pm 14.1 7.1 6.7 61 3.6 WSW 33 41 18 22 1013.4 1013.4 0.0
18/02:00pm 13.9 6.3 5.8 58 3.8 SW 35 46 19 25 1013.2 1013.2 0.0
18/01:30pm 13.7 5.4 6.1 60 3.6 SW 39 57 21 31 1013.2 1013.2 0.0
18/01:29pm 13.6 5.3 6.0 60 3.6 SW 39 57 21 31 1013.2 1013.2 0.0
18/01:00pm 13.5 4.5 6.4 62 3.4 WSW 43 57 23 31 1013.0 1013.0 0.0
18/12:30pm 13.4 3.9 6.5 63 3.3 SW 46 59 25 32 1013.2 1013.2 0.0
18/12:07pm 13.3 3.4 6.6 64 3.2 WSW 48 67 26 36 1013.3 1013.3 0.0
18/12:00pm 13.2 2.1 6.3 63 3.3 WSW 54 67 29 36 1013.4 1013.4 0.0
18/11:30am 12.9 2.2 6.3 64 3.1 WSW 52 70 28 38 1013.6 1013.6 0.0
18/11:06am 12.5 1.9 6.8 68 2.7 WSW 52 72 28 39 1013.5 1013.5 0.0
18/11:00am 12.5 2.6 6.8 68 2.7 WSW 48 61 26 33 1013.7 1013.7 0.0
18/10:44am 12.2 3.6 6.7 69 2.6 WSW 41 72 22 39 1014.0 1014.0 0.0
18/10:30am 12.0 3.9 6.9 71 2.4 WSW 39 52 21 28 1014.0 1014.0 0.0
18/10:00am 11.8 2.5 7.5 75 2.1 WSW 46 63 25 34 1013.7 1013.7 0.0
18/09:30am 11.4 2.1 7.7 78 1.8 WSW 46 61 25 33 1013.4 1013.4 0.0
18/09:27am 11.4 1.7 7.7 78 1.8 WSW 48 69 26 37 1013.4 1013.4 0.0
18/09:00am 11.2 1.5 7.3 77 1.9 WSW 48 65 26 35 1013.3 1013.3 1.0
18/08:30am 11.0 1.7 7.5 79 1.7 WSW 46 63 25 34 1013.1 1013.1 1.0
18/08:27am 10.8 1.9 7.5 80 1.6 WSW 44 63 24 34 1013.1 1013.1 1.0
18/08:00am 10.4 1.7 8.3 87 1.0 WSW 44 54 24 29 1012.7 1012.7 1.0
18/07:30am 10.2 1.5 7.6 84 1.2 WSW 43 52 23 28 1012.6 1012.6 0.8
18/07:00am 10.8 1.3 6.7 76 1.9 SW 46 56 25 30 1012.4 1012.4 0.0
18/06:39am 11.8 1.0 5.9 67 2.8 WSW 52 74 28 40 1011.8 1011.8 0.0
18/06:30am 11.8 0.2 5.9 67 2.8 WSW 56 67 30 36 1011.6 1011.6 0.0
18/06:01am 11.9 -1.1 5.3 64 3.0 WSW 63 83 34 45 1010.8 1010.8 0.0
18/06:00am 11.9 -1.4 5.8 66 2.9 WSW 65 83 35 45 1010.7 1010.7 0.0
18/05:37am 12.0 -0.9 5.9 66 2.9 WSW 63 82 34 44 1010.1 1010.1 0.0
18/05:30am 12.0 -0.9 5.9 66 2.9 WSW 63 76 34 41 1010.0 1010.0 0.0
18/05:03am 12.1 2.0 5.5 64 3.1 WSW 48 67 26 36 1009.6 1009.6 0.0
18/05:00am 12.0 2.2 5.4 64 3.1 WSW 46 57 25 31 1009.7 1009.7 0.0
18/04:30am 12.0 2.8 5.4 64 3.1 WSW 43 56 23 30 1009.3 1009.3 0.0
18/04:16am 12.0 4.3 5.4 64 3.1 WSW 35 56 19 30 1009.2 1009.2 0.0
18/04:00am 12.1 4.0 5.3 63 3.1 WSW 37 48 20 26 1009.5 1009.5 0.0
18/03:43am 12.0 5.6 5.4 64 3.1 WSW 28 46 15 25 1009.6 1009.6 0.0
18/03:30am 12.0 7.2 5.6 65 3.0 WSW 20 30 11 16 1009.6 1009.6 0.0
18/03:00am 10.9 8.3 4.1 63 3.0 NNW 7 17 4 9 1009.8 1009.8 0.0
18/02:30am 11.1 8.2 4.8 65 2.9 W 9 20 5 11 1009.9 1009.9 0.0
18/02:00am 11.4 8.1 4.6 63 3.1 WNW 11 33 6 18 1009.6 1009.6 0.0
18/01:30am 11.8 8.6 5.0 63 3.1 WSW 11 22 6 12 1009.6 1009.6 0.0
18/01:00am 12.0 8.5 5.4 64 3.1 SW 13 19 7 10 1009.6 1009.6 0.0
18/12:30am 12.4 7.8 5.8 64 3.1 SW 19 30 10 16 1009.3 1009.3 0.0
18/12:00am 12.5 7.7 5.7 63 3.2 WSW 20 33 11 18 1009.6 1009.6 0.0
 
Date/Time
EST
Temp
°C
App
Temp
°C
Dew
Point
°C
Rel
Hum
%
Delta-T
°C
Wind Press
QNH
hPa
Press
MSL
hPa
Rain since
9am
mm
Dir  Spd
km/h
Gust
km/h
Spd
kts
Gust
kts
17/11:30pm 11.9 8.5 5.8 66 2.8 W 13 15 7 8 1009.9 1009.9 0.0
17/11:00pm 12.4 8.5 5.3 62 3.3 WNW 15 22 8 12 1009.9 1009.9 0.0
17/10:30pm 13.1 7.5 5.5 60 3.6 W 24 39 13 21 1009.7 1009.7 0.0
17/10:00pm 12.7 8.6 6.1 64 3.1 SW 17 24 9 13 1009.9 1009.9 0.0
17/09:30pm 12.6 7.8 5.8 63 3.2 WSW 20 24 11 13 1010.2 1010.2 0.0
17/09:00pm 13.0 8.5 4.2 55 4.0 NW 17 24 9 13 1010.0 1010.0 0.0
17/08:30pm 12.2 8.1 4.2 58 3.6 NNW 15 24 8 13 1009.7 1009.7 0.0
17/08:00pm 12.8 8.7 4.3 56 3.9 NNW 15 19 8 10 1009.8 1009.8 0.0
17/07:30pm 12.8 9.5 4.8 58 3.7 NW 11 17 6 9 1009.9 1009.9 0.0
17/07:00pm 11.6 8.9 7.3 75 2.1 NNW 11 15 6 8 1009.9 1009.9 0.0
17/06:30pm 12.1 9.4 7.4 73 2.3 N 11 15 6 8 1009.7 1009.7 0.0

Other formats

Comma delimited format used in spreadsheet applications
http://www.bom.gov.au/fwo/IDN60801/IDN60801.94934.axf

JavaScript Object Notation format (JSON) in row-major order
http://www.bom.gov.au/fwo/IDN60801/IDN60801.94934.json

Data quality

Most of these data are generated automatically and are frequently updated. Quality checks on data are not normally performed. It is possible for incorrect values to appear. Refer to information at About Latest Weather Observations and please check the disclaimer before using these data.